Time;durP1;ratioP1;P1;durP2;ratioP2;P2;SDS_P1;SDS_P2;PMS_P1;PMS_P2;Temp;Humidity;BMP_temperature;BMP_pressure;BME280_temperature;BME280_humidity;BME280_pressure;Samples;Min_cycle;Max_cycle;Signal;HPM_P1;HPM_P2
2023/10/11 04:01:36;;;;;;;5.33;4.60;;;15.80;99.90;;;;;;5468985;23;21005;-73
2023/10/11 04:04:05;;;;;;;6.07;5.43;;;15.80;99.90;;;;;;4946208;28;20509;-73
2023/10/11 04:06:34;;;;;;;7.83;5.63;;;15.80;99.90;;;;;;4946327;28;20467;-73
2023/10/11 04:09:03;;;;;;;5.13;4.63;;;15.80;99.90;;;;;;4954055;28;20984;-73
2023/10/11 04:11:37;;;;;;;4.80;4.50;;;15.80;99.90;;;;;;4954066;28;21113;-73
2023/10/11 04:14:12;;;;;;;6.10;4.47;;;15.80;99.90;;;;;;4954149;28;20537;-73
2023/10/11 04:16:44;;;;;;;5.40;4.90;;;15.80;99.90;;;;;;4954259;28;20473;-72
2023/10/11 04:19:11;;;;;;;10.30;4.80;;;15.80;99.90;;;;;;4953964;28;20892;-72
2023/10/11 04:21:53;;;;;;;6.13;5.20;;;15.80;99.90;;;;;;4953733;28;20489;-73
2023/10/11 04:24:20;;;;;;;6.87;5.30;;;15.80;99.90;;;;;;4953531;28;20473;-72
2023/10/11 04:26:53;;;;;;;5.40;4.87;;;15.80;99.90;;;;;;4953844;28;20948;-73
2023/10/11 04:29:19;;;;;;;4.77;4.33;;;15.80;99.90;;;;;;4953963;28;20495;-72
2023/10/11 04:32:09;;;;;;;5.77;4.90;;;15.80;99.90;;;;;;4953821;28;20629;-71
2023/10/11 04:34:38;;;;;;;4.77;4.37;;;15.80;99.90;;;;;;4953445;28;20505;-71
2023/10/11 04:37:07;;;;;;;5.77;4.50;;;15.80;99.90;;;;;;4953804;28;20520;-72
2023/10/11 04:39:34;;;;;;;5.87;5.27;;;15.80;99.90;;;;;;4953971;28;20893;-71
2023/10/11 04:42:02;;;;;;;5.47;4.97;;;15.80;99.90;;;;;;4953748;28;20836;-71
2023/10/11 04:44:34;;;;;;;5.60;4.70;;;15.80;99.90;;;;;;4953501;28;20835;-71
2023/10/11 04:47:02;;;;;;;5.03;4.53;;;15.80;99.90;;;;;;4953795;28;20471;-71
2023/10/11 04:49:30;;;;;;;5.27;4.87;;;15.80;99.90;;;;;;4953466;28;20466;-71
2023/10/11 04:51:57;;;;;;;5.27;4.73;;;15.80;99.90;;;;;;4954303;28;20494;-72
2023/10/11 04:54:36;;;;;;;5.30;4.63;;;15.80;99.90;;;;;;4953815;28;21015;-72
2023/10/11 04:57:07;;;;;;;5.70;4.77;;;15.80;99.90;;;;;;4953592;28;20968;-72
2023/10/11 04:59:37;;;;;;;5.47;4.97;;;15.80;99.90;;;;;;4953485;28;20467;-72
2023/10/11 05:02:16;;;;;;;5.27;4.83;;;15.80;99.90;;;;;;4953183;28;20497;-72
2023/10/11 05:04:44;;;;;;;5.47;4.87;;;15.70;99.90;;;;;;4953128;28;20469;-72
2023/10/11 05:07:12;;;;;;;5.77;5.23;;;15.70;99.90;;;;;;4953438;28;20473;-71
2023/10/11 05:09:39;;;;;;;6.90;5.43;;;15.70;99.90;;;;;;4957956;28;20527;-71
2023/10/11 05:12:10;;;;;;;6.60;4.80;;;15.70;99.90;;;;;;4957226;28;21022;-71
2023/10/11 05:14:40;;;;;;;4.80;4.33;;;15.70;99.90;;;;;;4956774;28;20497;-71
2023/10/11 05:19:57;;;;;;;5.20;4.70;;;15.60;99.90;;;;;;4957247;29;20456;-71
2023/10/11 05:22:29;;;;;;;4.93;4.53;;;15.60;99.90;;;;;;4959507;28;20830;-73
2023/10/11 05:27:47;;;;;;;4.77;4.33;;;15.60;99.90;;;;;;4958632;28;20469;-74
2023/10/11 05:30:16;;;;;;;6.70;4.60;;;15.60;99.90;;;;;;4958708;28;20506;-74
2023/10/11 05:32:54;;;;;;;9.70;5.20;;;15.50;99.90;;;;;;4957605;28;20589;-74
2023/10/11 05:35:43;;;;;;;6.37;5.10;;;15.50;99.90;;;;;;4957144;28;21008;-74
2023/10/11 05:51:52;;;;;;;7.43;4.53;;;15.50;99.90;;;;;;4956599;29;20866;-73
2023/10/11 05:54:21;;;;;;;4.37;4.00;;;15.60;99.90;;;;;;4956207;28;21106;-74
2023/10/11 05:56:49;;;;;;;4.87;4.00;;;15.60;99.90;;;;;;4956487;28;20485;-74
2023/10/11 05:59:16;;;;;;;5.63;5.03;;;15.50;99.90;;;;;;4956590;28;20465;-74
2023/10/11 06:01:44;;;;;;;5.00;4.60;;;15.60;99.90;;;;;;4956422;28;20592;-74
2023/10/11 06:04:14;;;;;;;4.80;4.30;;;15.60;99.90;;;;;;4956805;28;20516;-75
2023/10/11 06:06:42;;;;;;;6.33;4.40;;;15.60;99.90;;;;;;4956289;28;20469;-75
2023/10/11 06:09:16;;;;;;;5.17;4.60;;;15.60;99.90;;;;;;4956732;28;20473;-75
2023/10/11 06:11:48;;;;;;;4.60;4.23;;;15.60;99.90;;;;;;4956672;28;20492;-75
2023/10/11 06:14:16;;;;;;;5.63;5.13;;;15.60;99.90;;;;;;4956256;28;20504;-75
2023/10/11 06:16:49;;;;;;;6.67;4.63;;;15.60;99.90;;;;;;4956334;28;20501;-75
2023/10/11 06:19:16;;;;;;;6.77;4.70;;;15.60;99.90;;;;;;4955437;28;20479;-75
2023/10/11 06:21:56;;;;;;;8.23;4.30;;;15.60;99.90;;;;;;4956445;28;20551;-75
2023/10/11 06:24:23;;;;;;;4.20;3.83;;;15.60;99.90;;;;;;4956041;28;20530;-75
2023/10/11 06:27:03;;;;;;;4.57;4.10;;;15.60;99.90;;;;;;4956098;28;20466;-75
2023/10/11 06:29:29;;;;;;;15.33;4.50;;;15.60;99.90;;;;;;4955760;28;20507;-75
2023/10/11 06:31:56;;;;;;;4.93;4.20;;;15.60;99.90;;;;;;4956076;28;20495;-74
2023/10/11 06:34:25;;;;;;;7.87;4.30;;;15.60;99.90;;;;;;4955787;28;20489;-75
2023/10/11 06:36:53;;;;;;;5.73;5.20;;;15.60;99.90;;;;;;4955910;28;20497;-74
2023/10/11 06:42:12;;;;;;;5.47;5.17;;;15.70;99.90;;;;;;4955842;29;20474;-75
2023/10/11 06:44:38;;;;;;;5.63;4.53;;;15.70;99.90;;;;;;4955788;28;20489;-75
2023/10/11 06:47:05;;;;;;;4.90;4.40;;;15.80;99.90;;;;;;4956131;28;20930;-75
2023/10/11 06:49:40;;;;;;;4.90;4.50;;;15.80;99.90;;;;;;4956280;28;20840;-75
2023/10/11 06:52:08;;;;;;;10.00;5.60;;;15.90;99.90;;;;;;4956027;28;20487;-75
2023/10/11 06:54:35;;;;;;;9.70;4.50;;;15.90;99.90;;;;;;4955553;28;20861;-75
2023/10/11 06:57:03;;;;;;;5.23;4.73;;;15.90;99.90;;;;;;4955749;28;20836;-75
2023/10/11 06:59:29;;;;;;;11.53;5.40;;;15.90;99.90;;;;;;4955256;28;20966;-75
2023/10/11 07:01:59;;;;;;;4.97;4.47;;;15.90;99.90;;;;;;4955532;28;20528;-75
2023/10/11 07:04:36;;;;;;;5.03;4.63;;;16.00;99.90;;;;;;4955190;28;20462;-75
2023/10/11 07:07:07;;;;;;;9.27;4.73;;;16.00;99.90;;;;;;4955540;28;20885;-74
2023/10/11 07:09:39;;;;;;;7.53;4.60;;;16.10;99.90;;;;;;4955470;28;20471;-75
2023/10/11 07:12:28;;;;;;;6.50;4.43;;;16.10;99.90;;;;;;4955345;28;20604;-75
2023/10/11 07:14:57;;;;;;;7.80;4.80;;;16.20;99.90;;;;;;4955161;28;21007;-75
2023/10/11 07:17:24;;;;;;;6.07;4.00;;;16.30;99.90;;;;;;4955373;28;20471;-75
2023/10/11 07:19:51;;;;;;;4.70;4.20;;;16.30;99.90;;;;;;4955405;28;20943;-75
2023/10/11 07:22:20;;;;;;;5.83;4.43;;;16.40;99.90;;;;;;4955272;29;20530;-75
2023/10/11 07:24:55;;;;;;;6.40;4.77;;;16.50;99.90;;;;;;4954866;28;20975;-75
2023/10/11 07:27:37;;;;;;;5.13;4.83;;;16.60;99.90;;;;;;4955307;28;20478;-74
2023/10/11 07:30:06;;;;;;;5.47;4.23;;;16.70;99.90;;;;;;4955546;28;20471;-74
2023/10/11 07:32:36;;;;;;;9.63;4.93;;;16.70;99.90;;;;;;4954327;28;20488;-75
2023/10/11 07:35:05;;;;;;;4.27;3.97;;;16.80;99.90;;;;;;4954980;28;20499;-74
2023/10/11 07:37:35;;;;;;;4.83;4.43;;;16.80;99.90;;;;;;4954865;28;20464;-75
2023/10/11 07:40:09;;;;;;;7.77;4.50;;;16.80;99.90;;;;;;4955031;28;20468;-75
2023/10/11 07:42:38;;;;;;;4.73;4.30;;;16.90;99.90;;;;;;4955444;28;20478;-75
2023/10/11 07:45:08;;;;;;;5.13;3.73;;;16.90;99.90;;;;;;4954898;28;20879;-75
2023/10/11 07:47:35;;;;;;;8.17;4.60;;;17.00;99.90;;;;;;4955265;28;20468;-75
2023/10/11 07:50:02;;;;;;;7.87;4.03;;;17.00;99.90;;;;;;4954880;28;20525;-75
2023/10/11 07:52:28;;;;;;;5.63;5.23;;;17.10;99.90;;;;;;4955091;28;20488;-75
2023/10/11 07:54:56;;;;;;;5.00;3.60;;;17.20;99.90;;;;;;4954375;28;20492;-75
2023/10/11 07:57:25;;;;;;;6.93;5.00;;;17.20;99.90;;;;;;4955054;28;20469;-75
2023/10/11 07:59:52;;;;;;;4.30;4.10;;;17.30;99.90;;;;;;4954646;28;20520;-75
2023/10/11 08:02:29;;;;;;;5.40;3.87;;;17.40;99.90;;;;;;4954597;28;20492;-74
2023/10/11 08:04:57;;;;;;;4.70;4.30;;;17.40;99.90;;;;;;4954770;28;20467;-75
2023/10/11 08:07:23;;;;;;;4.80;4.33;;;17.50;99.90;;;;;;4955609;28;20460;-75
2023/10/11 08:09:52;;;;;;;10.23;4.70;;;17.50;99.90;;;;;;4957436;28;20467;-75
2023/10/11 08:12:23;;;;;;;5.63;4.43;;;17.60;99.90;;;;;;4957823;28;21006;-74
2023/10/11 08:14:53;;;;;;;4.40;4.00;;;17.70;99.90;;;;;;4956170;28;20497;-74
2023/10/11 08:17:21;;;;;;;4.70;4.37;;;17.80;99.90;;;;;;4956044;28;20918;-73
2023/10/11 08:19:53;;;;;;;4.40;4.00;;;17.80;99.90;;;;;;4954863;28;20460;-72
2023/10/11 08:22:22;;;;;;;5.23;4.10;;;17.80;99.90;;;;;;4954336;28;20511;-73
2023/10/11 08:24:49;;;;;;;4.13;3.70;;;17.90;99.90;;;;;;4954322;28;20821;-72
2023/10/11 08:27:22;;;;;;;5.17;4.07;;;17.90;99.90;;;;;;4954395;28;20464;-72
2023/10/11 08:29:54;;;;;;;4.77;4.00;;;18.00;99.90;;;;;;4954263;28;20470;-72
2023/10/11 08:32:25;;;;;;;4.43;4.07;;;18.00;99.90;;;;;;4954362;28;20836;-72
2023/10/11 08:34:52;;;;;;;6.13;4.43;;;18.00;99.90;;;;;;4954324;28;21106;-72
2023/10/11 08:37:19;;;;;;;4.17;3.77;;;18.00;99.90;;;;;;4954236;28;20476;-72
2023/10/11 08:39:46;;;;;;;6.00;4.63;;;18.00;99.90;;;;;;4953937;28;20480;-73
2023/10/11 08:42:14;;;;;;;7.30;5.20;;;18.00;99.90;;;;;;4953722;28;20489;-73
2023/10/11 08:44:44;;;;;;;5.60;3.93;;;18.10;99.90;;;;;;4953794;28;20513;-73
2023/10/11 08:47:16;;;;;;;3.90;3.67;;;18.10;99.90;;;;;;4953777;28;20479;-72
2023/10/11 08:49:48;;;;;;;4.80;4.10;;;18.30;99.90;;;;;;4953909;28;20481;-73
2023/10/11 08:52:19;;;;;;;5.50;3.60;;;18.40;99.90;;;;;;4953750;28;20862;-72
2023/10/11 08:54:47;;;;;;;6.27;4.60;;;18.50;99.90;;;;;;4953519;28;20494;-72
2023/10/11 08:57:14;;;;;;;5.40;3.73;;;18.60;99.90;;;;;;4953790;28;20503;-72
2023/10/11 08:59:50;;;;;;;6.57;5.97;;;18.60;99.90;;;;;;4953650;28;20474;-73
2023/10/11 09:02:19;;;;;;;6.20;4.10;;;18.50;99.90;;;;;;4953539;28;20494;-72
2023/10/11 09:05:04;;;;;;;6.40;4.23;;;18.40;99.90;;;;;;4953370;28;20468;-72
2023/10/11 09:07:39;;;;;;;5.33;4.17;;;18.40;99.90;;;;;;4953790;28;20498;-71
2023/10/11 09:10:25;;;;;;;6.37;4.07;;;18.40;99.90;;;;;;4953540;28;21005;-72
2023/10/11 09:12:56;;;;;;;5.27;4.33;;;18.50;99.90;;;;;;4953423;28;20965;-72
2023/10/11 09:15:23;;;;;;;3.73;3.43;;;18.50;99.90;;;;;;4953444;28;20526;-72
2023/10/11 09:18:12;;;;;;;3.97;3.67;;;18.60;99.90;;;;;;4953570;28;20458;-73
2023/10/11 09:20:41;;;;;;;4.60;4.03;;;18.70;99.90;;;;;;4953405;28;20556;-72
2023/10/11 09:23:08;;;;;;;8.93;5.50;;;18.60;99.90;;;;;;4953434;28;20837;-72
2023/10/11 09:25:57;;;;;;;4.43;4.00;;;18.60;99.90;;;;;;4953180;28;20467;-72
2023/10/11 09:28:25;;;;;;;7.40;4.90;;;18.60;99.90;;;;;;4953221;28;20837;-73
2023/10/11 09:31:09;;;;;;;6.33;3.97;;;18.60;99.90;;;;;;4953054;28;20985;-72
2023/10/11 09:33:40;;;;;;;4.30;3.90;;;18.60;99.90;;;;;;4953190;28;20820;-73
2023/10/11 09:36:12;;;;;;;4.67;4.27;;;18.60;99.90;;;;;;4953172;28;20494;-73
2023/10/11 09:38:41;;;;;;;4.73;4.13;;;18.60;99.90;;;;;;4953144;28;20502;-73
2023/10/11 09:41:09;;;;;;;4.47;4.07;;;18.60;99.90;;;;;;4952902;28;20972;-73
2023/10/11 09:43:43;;;;;;;4.17;3.70;;;18.60;99.90;;;;;;4952981;28;20549;-73
2023/10/11 09:46:12;;;;;;;6.47;4.30;;;18.70;99.90;;;;;;4953192;28;20470;-73
2023/10/11 09:48:41;;;;;;;4.33;3.93;;;18.70;99.90;;;;;;4952947;28;20475;-72
2023/10/11 09:51:13;;;;;;;5.50;4.17;;;18.90;99.90;;;;;;4953005;28;20496;-73
2023/10/11 09:53:42;;;;;;;4.73;3.93;;;18.90;99.90;;;;;;4953137;28;20470;-72
2023/10/11 09:56:18;;;;;;;4.20;3.90;;;19.00;99.90;;;;;;4955792;28;20500;-71
2023/10/11 09:58:54;;;;;;;7.17;4.30;;;19.20;99.90;;;;;;4956571;28;20475;-71
2023/10/11 10:01:26;;;;;;;6.87;4.10;;;19.30;99.90;;;;;;4956255;28;20599;-71
2023/10/11 10:03:55;;;;;;;5.53;3.70;;;19.40;99.90;;;;;;4956452;28;20876;-71
2023/10/11 10:06:22;;;;;;;4.23;3.93;;;19.50;99.90;;;;;;4956283;28;20486;-72
2023/10/11 10:09:22;;;;;;;4.57;4.00;;;19.60;99.90;;;;;;4956593;28;20538;-72
2023/10/11 10:12:25;;;;;;;4.53;3.50;;;19.70;99.90;;;;;;4956368;28;20488;-72
2023/10/11 10:15:09;;;;;;;7.07;4.20;;;19.70;99.90;;;;;;4957102;23;20722;-71
2023/10/11 10:17:38;;;;;;;6.00;3.97;;;19.80;99.90;;;;;;4953639;28;20471;-70
2023/10/11 10:20:42;;;;;;;4.87;3.80;;;19.80;99.90;;;;;;4950844;29;20475;-71
2023/10/11 10:23:29;;;;;;;8.20;4.80;;;19.90;99.90;;;;;;4935567;28;21049;-71
2023/10/11 10:26:45;;;;;;;3.83;3.63;;;20.00;99.90;;;;;;4956350;28;20484;-71
2023/10/11 10:29:15;;;;;;;4.00;3.70;;;20.10;99.90;;;;;;4951291;29;20488;-71
2023/10/11 10:32:05;;;;;;;3.60;3.30;;;20.10;99.90;;;;;;4956237;28;20469;-71
2023/10/11 10:34:32;;;;;;;7.30;3.90;;;20.20;99.90;;;;;;4955976;28;20810;-70
2023/10/11 10:37:05;;;;;;;5.77;4.50;;;20.20;99.90;;;;;;4955945;28;20506;-70
2023/10/11 10:39:47;;;;;;;3.93;3.43;;;20.20;99.90;;;;;;4947946;28;20468;-70
2023/10/11 10:42:18;;;;;;;4.80;3.77;;;20.20;99.90;;;;;;4956215;28;20475;-70
2023/10/11 10:44:54;;;;;;;5.30;4.03;;;20.20;99.90;;;;;;4955906;28;20485;-70
2023/10/11 10:47:31;;;;;;;5.87;3.67;;;20.20;99.90;;;;;;4955868;28;20567;-70
2023/10/11 10:50:06;;;;;;;7.80;3.50;;;20.20;99.90;;;;;;4955722;28;20473;-71
2023/10/11 10:52:34;;;;;;;4.60;4.20;;;20.20;99.90;;;;;;4956073;28;20519;-71
2023/10/11 10:55:03;;;;;;;4.23;3.73;;;20.20;99.90;;;;;;4955590;28;20532;-70
2023/10/11 10:57:36;;;;;;;3.67;3.33;;;20.20;99.90;;;;;;4955930;28;20472;-70
2023/10/11 11:00:07;;;;;;;5.60;4.30;;;20.20;99.90;;;;;;4942615;28;20900;-70
2023/10/11 11:02:36;;;;;;;5.53;4.43;;;20.20;99.90;;;;;;4953703;29;20469;-70
2023/10/11 11:05:13;;;;;;;5.03;3.33;;;20.20;99.90;;;;;;4950538;28;20486;-71
2023/10/11 11:07:41;;;;;;;3.43;3.17;;;20.10;99.90;;;;;;4946806;29;20476;-71
2023/10/11 11:10:16;;;;;;;3.63;3.33;;;20.10;99.90;;;;;;4941768;28;20481;-71
2023/10/11 11:12:42;;;;;;;4.07;3.77;;;20.00;99.90;;;;;;4946755;29;20467;-71
2023/10/11 11:15:13;;;;;;;6.20;4.33;;;20.00;99.90;;;;;;4954989;28;20511;-71
2023/10/11 11:17:46;;;;;;;5.17;4.23;;;19.90;99.90;;;;;;4948069;28;20217;-71
2023/10/11 11:20:14;;;;;;;5.47;3.23;;;19.90;99.90;;;;;;4947587;28;20468;-70
2023/10/11 11:22:45;;;;;;;3.87;3.40;;;19.90;99.90;;;;;;4952943;28;20472;-70
2023/10/11 11:25:26;;;;;;;4.20;3.87;;;19.80;99.90;;;;;;4950268;29;20517;-70
2023/10/11 11:28:03;;;;;;;3.83;3.50;;;19.80;99.90;;;;;;4944261;29;20515;-71
2023/10/11 11:30:33;;;;;;;6.07;3.77;;;19.70;99.90;;;;;;4936016;29;20469;-70
2023/10/11 11:33:00;;;;;;;5.20;4.70;;;19.70;99.90;;;;;;4936151;29;20523;-71
2023/10/11 11:35:29;;;;;;;5.07;3.73;;;19.60;99.90;;;;;;4952226;29;20499;-71
2023/10/11 11:38:02;;;;;;;5.87;3.50;;;19.60;99.90;;;;;;4954946;28;20564;-71
2023/10/11 11:40:31;;;;;;;4.17;3.70;;;19.50;99.90;;;;;;4955011;28;20846;-71
2023/10/11 11:43:01;;;;;;;10.83;4.37;;;19.50;99.90;;;;;;4955063;28;20840;-70
2023/10/11 11:45:30;;;;;;;4.83;3.90;;;19.40;99.90;;;;;;4946148;28;20492;-71
2023/10/11 11:47:56;;;;;;;5.30;4.60;;;19.40;99.90;;;;;;4935646;29;20943;-71
2023/10/11 11:50:23;;;;;;;5.43;4.93;;;19.40;99.90;;;;;;4951289;29;20483;-71
2023/10/11 11:52:48;;;;;;;6.73;5.23;;;19.40;99.90;;;;;;4954979;28;20474;-71
2023/10/11 11:55:20;;;;;;;5.60;4.87;;;19.30;99.90;;;;;;4954615;28;20488;-73
2023/10/11 11:57:47;;;;;;;5.07;4.50;;;19.30;99.90;;;;;;4951772;28;20302;-71
2023/10/11 12:00:37;;;;;;;8.00;5.17;;;19.20;99.90;;;;;;4935612;29;20616;-71
2023/10/11 12:03:04;;;;;;;5.60;5.10;;;19.20;99.90;;;;;;4948934;29;20456;-71
2023/10/11 12:05:37;;;;;;;6.13;5.53;;;19.20;99.90;;;;;;4954293;28;20900;-71
2023/10/11 12:08:08;;;;;;;5.73;5.17;;;19.20;99.90;;;;;;4954423;28;20467;-70
2023/10/11 12:10:36;;;;;;;8.43;5.43;;;19.20;99.90;;;;;;4945069;28;20472;-70
2023/10/11 12:13:06;;;;;;;7.17;5.70;;;19.30;99.90;;;;;;4940569;29;20467;-71
2023/10/11 12:15:33;;;;;;;6.80;5.03;;;19.30;99.90;;;;;;4953776;28;20503;-70
2023/10/11 12:18:00;;;;;;;7.07;5.80;;;19.30;99.90;;;;;;4953905;28;20468;-70
2023/10/11 12:20:33;;;;;;;6.70;5.43;;;19.30;99.90;;;;;;4954236;28;20479;-71
2023/10/11 12:23:07;;;;;;;5.47;5.00;;;19.30;99.90;;;;;;4954213;28;20894;-71
2023/10/11 12:25:36;;;;;;;6.23;5.50;;;19.30;99.90;;;;;;4944709;28;20492;-71
2023/10/11 12:28:05;;;;;;;5.73;5.30;;;19.30;99.90;;;;;;4934936;29;20560;-71
2023/10/11 12:30:35;;;;;;;5.47;4.97;;;19.20;99.90;;;;;;4934994;29;20468;-71
2023/10/11 12:33:06;;;;;;;9.10;6.83;;;19.20;99.90;;;;;;4934914;29;20895;-70
2023/10/11 12:35:34;;;;;;;7.97;6.53;;;19.20;99.90;;;;;;4935021;29;20491;-70
2023/10/11 12:38:01;;;;;;;6.33;5.83;;;19.20;99.90;;;;;;4934978;29;20474;-71
2023/10/11 12:40:28;;;;;;;5.67;5.17;;;19.30;99.90;;;;;;4934776;29;20525;-71
2023/10/11 12:42:56;;;;;;;7.30;6.70;;;19.30;99.90;;;;;;4934954;29;20476;-71
2023/10/11 12:45:23;;;;;;;6.67;5.80;;;19.40;99.90;;;;;;4937352;29;20489;-71
2023/10/11 12:47:50;;;;;;;7.37;5.50;;;19.30;99.90;;;;;;4951961;29;20475;-71
2023/10/11 12:50:17;;;;;;;7.47;6.27;;;19.30;99.90;;;;;;4958303;28;20871;-71
2023/10/11 12:52:45;;;;;;;10.70;5.80;;;19.20;99.90;;;;;;4957679;28;20478;-71
2023/10/11 12:55:12;;;;;;;6.63;5.70;;;19.20;99.90;;;;;;4947661;28;20489;-71
2023/10/11 12:57:39;;;;;;;8.73;6.67;;;19.20;99.90;;;;;;4945726;29;20505;-71
2023/10/11 13:00:28;;;;;;;7.03;6.43;;;19.20;99.90;;;;;;4954144;28;20494;-70
2023/10/11 13:02:58;;;;;;;8.20;7.40;;;19.20;99.90;;;;;;4954077;28;20467;-70
2023/10/11 13:05:26;;;;;;;7.53;6.77;;;19.10;99.90;;;;;;4953816;28;20479;-70
2023/10/11 13:07:54;;;;;;;6.57;5.97;;;19.00;99.90;;;;;;4954310;28;20458;-71
2023/10/11 13:10:22;;;;;;;9.83;6.20;;;19.00;99.90;;;;;;4954274;28;20466;-71
2023/10/11 13:12:50;;;;;;;8.17;5.67;;;19.00;99.90;;;;;;4953974;28;20475;-71
2023/10/11 13:15:22;;;;;;;6.70;6.20;;;19.00;99.90;;;;;;4953633;28;20491;-71
2023/10/11 13:17:49;;;;;;;6.07;5.47;;;19.00;99.90;;;;;;4934750;28;20496;-70
2023/10/11 13:20:19;;;;;;;6.80;5.40;;;19.00;99.90;;;;;;4934659;29;21086;-71
2023/10/11 13:22:46;;;;;;;7.10;5.57;;;19.00;99.90;;;;;;4945364;29;20466;-71
2023/10/11 13:25:23;;;;;;;7.30;5.73;;;19.00;99.90;;;;;;4953484;28;20546;-71
2023/10/11 13:27:51;;;;;;;7.10;5.40;;;18.90;99.90;;;;;;4946112;28;20463;-71
2023/10/11 13:30:22;;;;;;;10.67;6.40;;;18.90;99.90;;;;;;4955004;28;20466;-70
2023/10/11 13:32:50;;;;;;;5.47;4.93;;;18.90;99.90;;;;;;4957489;28;20973;-71
2023/10/11 13:35:16;;;;;;;6.00;5.50;;;18.90;99.90;;;;;;4957206;28;20487;-71
2023/10/11 13:37:46;;;;;;;6.00;5.50;;;18.90;99.90;;;;;;4957328;28;20498;-71
2023/10/11 13:40:14;;;;;;;8.47;6.23;;;18.90;99.90;;;;;;4959563;28;20465;-71
2023/10/11 13:42:42;;;;;;;6.33;5.73;;;18.90;99.90;;;;;;4957864;28;20469;-71
2023/10/11 13:45:14;;;;;;;7.20;5.63;;;18.90;99.90;;;;;;4959401;28;20642;-70
2023/10/11 13:47:42;;;;;;;7.00;5.80;;;19.00;99.90;;;;;;4958746;28;20477;-70
2023/10/11 13:50:20;;;;;;;5.57;4.90;;;19.00;99.90;;;;;;4958824;28;20475;-71
2023/10/11 13:52:51;;;;;;;8.87;5.50;;;18.90;99.90;;;;;;4947464;28;20476;-70
2023/10/11 13:55:23;;;;;;;4.70;4.50;;;19.00;99.90;;;;;;4938401;29;20586;-70
2023/10/11 13:57:55;;;;;;;6.37;5.50;;;19.00;99.90;;;;;;4949513;29;20574;-70
2023/10/11 14:01:01;;;;;;;5.87;4.93;;;19.10;99.90;;;;;;4956923;28;20473;-70
2023/10/11 14:03:46;;;;;;;5.23;4.80;;;19.10;99.90;;;;;;4956881;28;20467;-71
2023/10/11 14:06:22;;;;;;;5.07;4.70;;;19.10;99.90;;;;;;4956948;28;20972;-71
2023/10/11 14:08:50;;;;;;;5.33;4.87;;;19.00;99.90;;;;;;4956758;28;20457;-71
2023/10/11 14:11:18;;;;;;;7.70;5.63;;;18.90;99.90;;;;;;4956689;28;20469;-70
2023/10/11 14:13:49;;;;;;;6.03;5.53;;;18.90;99.90;;;;;;4956680;28;20485;-70
2023/10/11 14:16:27;;;;;;;6.40;5.30;;;18.90;99.90;;;;;;4949765;28;20500;-70
2023/10/11 14:18:56;;;;;;;6.07;5.57;;;18.80;99.90;;;;;;4949533;29;20468;-71
2023/10/11 14:21:24;;;;;;;8.20;5.00;;;18.80;99.90;;;;;;4957233;28;20469;-70
2023/10/11 14:23:51;;;;;;;4.77;4.43;;;18.70;99.90;;;;;;4948932;29;20465;-70
2023/10/11 14:26:18;;;;;;;4.83;4.40;;;18.70;99.90;;;;;;4956302;28;20957;-70
2023/10/11 14:28:45;;;;;;;8.13;4.50;;;18.70;99.90;;;;;;4937650;28;20474;-70
2023/10/11 14:31:18;;;;;;;5.67;5.17;;;18.70;99.90;;;;;;4937130;29;20470;-70
2023/10/11 14:33:47;;;;;;;5.27;4.70;;;18.80;99.90;;;;;;4937454;29;20530;-70
2023/10/11 14:36:21;;;;;;;4.73;4.33;;;18.70;99.90;;;;;;4936765;29;20515;-70
2023/10/11 14:38:51;;;;;;;5.53;5.10;;;18.70;99.90;;;;;;4936983;29;20470;-70
2023/10/11 14:41:21;;;;;;;9.83;5.00;;;18.80;99.90;;;;;;4936485;29;20467;-70
2023/10/11 14:43:48;;;;;;;5.80;4.50;;;18.80;99.90;;;;;;4936713;29;20557;-71
2023/10/11 14:46:19;;;;;;;5.30;4.80;;;18.80;99.90;;;;;;4936966;29;20466;-71
2023/10/11 14:48:48;;;;;;;4.93;4.50;;;18.90;99.90;;;;;;4955362;29;20850;-71
2023/10/11 14:51:18;;;;;;;8.30;4.50;;;18.90;99.90;;;;;;4955904;28;20474;-70
2023/10/11 14:53:46;;;;;;;4.77;4.37;;;18.90;99.90;;;;;;4955751;28;20477;-70
2023/10/11 14:56:13;;;;;;;4.93;4.40;;;18.90;99.90;;;;;;4955978;28;20473;-70
2023/10/11 14:58:41;;;;;;;5.33;4.83;;;18.90;99.90;;;;;;4955923;28;20883;-71
2023/10/11 15:01:09;;;;;;;3.90;3.70;;;18.90;99.90;;;;;;4955824;28;20498;-70
2023/10/11 15:03:36;;;;;;;4.20;3.93;;;18.90;99.90;;;;;;4955803;28;20468;-71
2023/10/11 15:06:08;;;;;;;5.70;4.70;;;18.90;99.90;;;;;;4955670;28;20492;-70
2023/10/11 15:08:37;;;;;;;3.80;3.60;;;18.90;99.90;;;;;;4946440;28;20471;-71
2023/10/11 15:11:05;;;;;;;5.60;5.20;;;18.80;99.90;;;;;;4936367;29;20473;-70
2023/10/11 15:13:33;;;;;;;4.60;4.30;;;18.80;99.90;;;;;;4936611;29;20503;-70
2023/10/11 15:16:01;;;;;;;5.10;4.80;;;18.70;99.90;;;;;;4940700;29;20556;-71
2023/10/11 15:18:28;;;;;;;4.53;4.13;;;18.70;99.90;;;;;;4957800;28;20523;-70
2023/10/11 15:20:55;;;;;;;4.57;4.17;;;18.70;99.90;;;;;;4952595;28;20473;-71
2023/10/11 15:23:23;;;;;;;4.50;4.10;;;18.60;99.90;;;;;;4951914;29;20573;-71
2023/10/11 15:25:53;;;;;;;5.00;4.50;;;18.60;99.90;;;;;;4956921;28;20867;-71
2023/10/11 15:28:20;;;;;;;5.47;5.13;;;18.50;99.90;;;;;;4957572;28;20471;-72
2023/10/11 15:30:47;;;;;;;4.73;4.33;;;18.50;99.90;;;;;;4946264;28;20483;-71
2023/10/11 15:33:14;;;;;;;5.40;4.90;;;18.40;99.90;;;;;;4935779;29;20981;-71
2023/10/11 15:35:47;;;;;;;5.10;4.80;;;18.40;99.90;;;;;;4938639;29;20490;-72
2023/10/11 15:38:14;;;;;;;7.00;4.53;;;18.30;99.90;;;;;;4937028;29;21138;-72
2023/10/11 15:40:41;;;;;;;4.90;4.50;;;18.30;99.90;;;;;;4937806;29;20504;-71
2023/10/11 15:43:13;;;;;;;6.23;4.83;;;18.20;99.90;;;;;;4946545;29;20473;-71
2023/10/11 15:45:51;;;;;;;5.80;5.20;;;18.20;99.90;;;;;;4946015;29;20488;-70
2023/10/11 15:48:18;;;;;;;6.23;5.67;;;18.10;99.90;;;;;;4956044;28;20471;-69
2023/10/11 15:50:46;;;;;;;5.57;5.07;;;18.10;99.90;;;;;;4955673;29;20947;-70
2023/10/11 15:53:13;;;;;;;5.90;4.60;;;18.10;99.90;;;;;;4954576;28;20476;-70
2023/10/11 15:55:41;;;;;;;5.93;5.50;;;18.10;99.90;;;;;;4955622;28;20919;-70
2023/10/11 15:58:10;;;;;;;5.93;5.53;;;18.10;99.90;;;;;;4954980;28;20489;-69
2023/10/11 16:00:41;;;;;;;7.63;5.20;;;18.00;99.90;;;;;;4955687;28;20928;-70
2023/10/11 16:03:09;;;;;;;5.50;5.10;;;18.10;99.90;;;;;;4956071;28;20472;-70
2023/10/11 16:05:36;;;;;;;7.37;4.80;;;18.00;99.90;;;;;;4949979;28;20493;-72
2023/10/11 16:08:04;;;;;;;6.47;5.70;;;18.00;99.90;;;;;;4957929;28;20460;-71
2023/10/11 16:10:33;;;;;;;8.23;5.67;;;18.00;99.90;;;;;;4956756;28;20547;-70
2023/10/11 16:13:02;;;;;;;6.13;5.23;;;18.00;99.90;;;;;;4956936;28;20480;-70
2023/10/11 16:15:33;;;;;;;5.43;4.93;;;18.10;99.90;;;;;;4960989;23;20509;-70
2023/10/11 16:18:02;;;;;;;8.10;4.93;;;18.00;99.90;;;;;;4934249;29;21011;-69
2023/10/11 16:20:30;;;;;;;8.07;6.80;;;17.90;99.90;;;;;;4934927;29;20961;-69
2023/10/11 16:22:57;;;;;;;6.07;5.53;;;17.90;99.90;;;;;;4950139;28;20556;-69
2023/10/11 16:25:24;;;;;;;12.10;5.47;;;17.90;99.90;;;;;;4934711;29;20500;-69
2023/10/11 16:27:51;;;;;;;6.73;6.03;;;17.90;99.90;;;;;;4946274;29;20460;-70
2023/10/11 16:30:20;;;;;;;10.90;6.33;;;17.80;99.90;;;;;;4953523;28;20974;-70
2023/10/11 16:32:52;;;;;;;6.37;5.83;;;17.80;99.90;;;;;;4953716;28;20466;-69
2023/10/11 16:35:19;;;;;;;5.90;5.03;;;17.80;99.90;;;;;;4953306;28;21090;-68
2023/10/11 16:37:45;;;;;;;5.40;4.90;;;17.80;99.90;;;;;;4953378;28;20500;-69
2023/10/11 16:40:19;;;;;;;6.30;4.93;;;17.80;99.90;;;;;;4953453;28;20476;-69
2023/10/11 16:42:48;;;;;;;6.13;5.07;;;17.80;99.90;;;;;;4942955;28;20479;-70
2023/10/11 16:45:15;;;;;;;4.90;4.50;;;17.80;99.90;;;;;;4934242;29;20521;-69
2023/10/11 16:47:43;;;;;;;5.73;5.23;;;17.80;99.90;;;;;;4934256;29;20960;-69
2023/10/11 16:50:16;;;;;;;5.93;5.40;;;17.80;99.90;;;;;;4934268;29;20480;-69
2023/10/11 16:52:43;;;;;;;5.70;5.23;;;17.80;99.90;;;;;;4934378;29;20545;-69
2023/10/11 16:55:11;;;;;;;5.50;4.93;;;17.80;99.90;;;;;;4934247;29;20493;-69
2023/10/11 16:57:39;;;;;;;6.47;5.90;;;17.80;99.90;;;;;;4942022;29;20495;-69
2023/10/11 17:00:13;;;;;;;6.67;5.93;;;17.80;99.90;;;;;;4934444;29;20469;-69
2023/10/11 17:02:41;;;;;;;6.87;5.53;;;17.70;99.90;;;;;;4942856;29;20955;-69
2023/10/11 17:05:13;;;;;;;5.97;5.27;;;17.70;99.90;;;;;;4950857;29;20492;-69
2023/10/11 17:07:40;;;;;;;7.57;5.00;;;17.70;99.90;;;;;;4939717;28;20469;-69
2023/10/11 17:10:09;;;;;;;7.07;6.33;;;17.70;99.90;;;;;;4951782;29;20475;-70
2023/10/11 17:12:40;;;;;;;7.20;6.50;;;17.60;99.90;;;;;;4941728;28;20491;-70
2023/10/11 17:15:09;;;;;;;6.30;5.70;;;17.60;99.90;;;;;;4949098;28;20519;-69
2023/10/11 17:17:36;;;;;;;6.77;6.13;;;17.60;99.90;;;;;;4939713;28;21050;-69
2023/10/11 17:20:04;;;;;;;6.53;5.80;;;17.60;99.90;;;;;;4938622;29;20500;-70
2023/10/11 17:22:34;;;;;;;5.70;4.90;;;17.60;99.90;;;;;;4946392;29;20853;-70
2023/10/11 17:25:05;;;;;;;6.77;6.10;;;17.60;99.90;;;;;;4946191;29;20481;-70
2023/10/11 17:27:34;;;;;;;6.27;5.73;;;17.50;99.90;;;;;;4946112;29;20548;-70